Time;durP1;ratioP1;P1;durP2;ratioP2;P2;SDS_P1;SDS_P2;PMS_P1;PMS_P2;Temp;Humidity;BMP_temperature;BMP_pressure;BME280_temperature;BME280_humidity;BME280_pressure;Samples;Min_cycle;Max_cycle;Signal;HPM_P1;HPM_P2
2021/12/09 00:00:51;;;;;;;17.10;15.20;;;5.10;99.90;;;;;;4995013;28;20259;-77
2021/12/09 00:03:19;;;;;;;17.45;15.30;;;5.00;99.90;;;;;;5012243;28;20333;-78
2021/12/09 00:05:47;;;;;;;18.40;15.05;;;5.00;99.90;;;;;;5008869;28;20589;-78
2021/12/09 00:08:14;;;;;;;16.23;14.70;;;5.00;99.90;;;;;;4994667;28;20305;-77
2021/12/09 00:10:41;;;;;;;16.48;14.70;;;5.00;99.90;;;;;;5008600;28;20305;-77
2021/12/09 00:13:09;;;;;;;17.35;14.90;;;5.00;99.90;;;;;;5011954;28;20221;-78
2021/12/09 00:15:37;;;;;;;21.55;17.27;;;5.00;99.90;;;;;;5014030;28;20207;-77
2021/12/09 00:18:05;;;;;;;18.83;16.60;;;5.10;99.90;;;;;;5013808;28;20245;-77
2021/12/09 00:20:31;;;;;;;17.83;13.32;;;5.10;99.90;;;;;;5000018;28;20286;-77
2021/12/09 00:22:59;;;;;;;14.88;12.30;;;5.10;99.90;;;;;;5004201;28;20245;-78
2021/12/09 00:25:27;;;;;;;12.63;10.85;;;5.10;99.90;;;;;;5012057;28;20296;-78
2021/12/09 00:27:54;;;;;;;15.20;10.38;;;5.00;99.90;;;;;;5013109;28;20202;-77
2021/12/09 00:30:21;;;;;;;13.35;11.40;;;5.00;99.90;;;;;;4997121;28;20205;-77
2021/12/09 00:32:50;;;;;;;7.93;7.20;;;4.90;99.90;;;;;;5009569;28;20650;-78
2021/12/09 00:35:18;;;;;;;10.02;7.10;;;4.90;99.90;;;;;;5012965;28;20293;-78
2021/12/09 00:37:55;;;;;;;9.43;6.97;;;4.70;99.90;;;;;;5013606;28;20201;-77
2021/12/09 00:40:22;;;;;;;8.82;6.30;;;4.60;99.90;;;;;;5012837;28;20210;-77
2021/12/09 00:42:49;;;;;;;8.77;7.85;;;4.60;99.90;;;;;;5011919;28;20195;-78
2021/12/09 00:45:16;;;;;;;11.65;8.75;;;4.60;99.90;;;;;;5012458;28;20933;-77
2021/12/09 00:47:43;;;;;;;8.55;7.32;;;4.60;99.90;;;;;;5013036;28;20191;-78
2021/12/09 00:50:12;;;;;;;9.77;7.00;;;4.60;99.90;;;;;;5005048;28;20195;-76
2021/12/09 00:52:39;;;;;;;8.48;7.13;;;4.60;99.90;;;;;;5011475;28;20289;-78
2021/12/09 00:55:08;;;;;;;6.78;4.65;;;4.60;99.90;;;;;;5011899;28;20206;-77
2021/12/09 00:57:36;;;;;;;9.52;4.28;;;4.60;99.90;;;;;;5012360;28;20202;-77
2021/12/09 01:00:05;;;;;;;8.55;4.93;;;4.60;99.90;;;;;;5007998;28;20202;-77
2021/12/09 01:02:32;;;;;;;12.95;8.32;;;4.60;99.90;;;;;;5002439;28;20261;-77
2021/12/09 01:04:58;;;;;;;5.22;4.72;;;4.60;99.90;;;;;;5011395;28;20242;-77
2021/12/09 01:07:27;;;;;;;8.88;4.18;;;4.60;99.90;;;;;;5000239;28;20203;-77
2021/12/09 01:09:54;;;;;;;6.82;4.90;;;4.70;99.90;;;;;;5005141;28;20192;-77
2021/12/09 01:12:21;;;;;;;7.28;4.78;;;4.70;99.90;;;;;;5001071;28;20206;-77
2021/12/09 01:14:47;;;;;;;5.57;4.20;;;4.70;99.90;;;;;;5012506;28;20269;-78
2021/12/09 01:17:14;;;;;;;6.75;5.15;;;4.80;99.90;;;;;;5002260;28;20191;-78
2021/12/09 01:19:42;;;;;;;8.73;5.25;;;4.80;99.90;;;;;;5004810;28;20765;-78
2021/12/09 01:22:09;;;;;;;7.47;6.10;;;4.80;99.90;;;;;;5008862;28;20198;-78
2021/12/09 01:24:38;;;;;;;6.20;5.60;;;4.80;99.90;;;;;;5011908;28;20222;-78
2021/12/09 01:27:06;;;;;;;6.25;5.70;;;4.70;99.90;;;;;;5004521;28;20226;-77
2021/12/09 01:29:36;;;;;;;6.18;5.47;;;4.70;99.90;;;;;;5002974;28;20233;-78
2021/12/09 01:32:07;;;;;;;8.80;6.80;;;4.80;99.90;;;;;;5012109;28;20273;-78
2021/12/09 01:34:34;;;;;;;9.95;7.18;;;4.80;99.90;;;;;;5011267;28;20210;-78
2021/12/09 01:37:01;;;;;;;7.85;7.05;;;4.80;99.90;;;;;;5006886;28;20245;-78
2021/12/09 01:39:30;;;;;;;10.10;6.82;;;4.80;99.90;;;;;;5011518;28;20627;-77
2021/12/09 01:41:59;;;;;;;9.73;7.60;;;4.80;99.90;;;;;;5011889;28;20214;-78
2021/12/09 01:44:27;;;;;;;9.65;7.88;;;4.90;99.90;;;;;;5011301;28;20309;-78
2021/12/09 01:46:56;;;;;;;8.77;7.85;;;4.90;99.90;;;;;;5005690;28;20219;-78
2021/12/09 01:49:23;;;;;;;9.68;8.50;;;5.00;99.90;;;;;;5003733;28;20202;-78
2021/12/09 01:51:50;;;;;;;13.45;8.93;;;5.00;99.90;;;;;;5008321;28;20209;-78
2021/12/09 01:54:17;;;;;;;13.30;8.43;;;4.90;99.90;;;;;;4992646;28;20227;-78
2021/12/09 01:56:45;;;;;;;8.77;7.85;;;5.00;99.90;;;;;;4997401;28;20658;-78
2021/12/09 01:59:13;;;;;;;10.02;8.48;;;5.00;99.90;;;;;;5011201;28;20214;-77
2021/12/09 02:01:40;;;;;;;10.18;8.65;;;4.90;99.90;;;;;;5009204;28;20286;-78
2021/12/09 02:04:09;;;;;;;10.00;8.95;;;4.90;99.90;;;;;;5005506;28;20219;-78
2021/12/09 02:06:40;;;;;;;12.50;9.05;;;4.90;99.90;;;;;;4994813;28;20710;-78
2021/12/09 02:09:08;;;;;;;11.13;9.93;;;4.90;99.90;;;;;;5011059;28;20194;-77
2021/12/09 02:11:35;;;;;;;10.70;9.60;;;4.80;99.90;;;;;;5007917;28;20294;-78
2021/12/09 02:14:02;;;;;;;11.50;10.27;;;4.80;99.90;;;;;;5011058;28;20551;-77
2021/12/09 02:16:31;;;;;;;12.68;10.18;;;4.70;99.90;;;;;;5009939;28;20195;-78
2021/12/09 02:18:58;;;;;;;12.40;10.20;;;4.70;99.90;;;;;;5009975;28;20195;-78
2021/12/09 02:21:28;;;;;;;12.07;10.05;;;4.60;99.90;;;;;;5010378;28;20198;-78
2021/12/09 02:23:58;;;;;;;12.70;9.40;;;4.60;99.90;;;;;;5011078;28;20217;-76
2021/12/09 02:26:29;;;;;;;14.00;9.88;;;4.60;99.90;;;;;;5009645;28;20251;-78
2021/12/09 02:28:57;;;;;;;16.13;10.57;;;4.50;99.90;;;;;;5010139;28;20214;-78
2021/12/09 02:31:25;;;;;;;13.57;9.90;;;4.50;99.90;;;;;;5007747;28;20325;-78
2021/12/09 02:33:52;;;;;;;13.80;9.63;;;4.50;99.90;;;;;;5010434;28;20225;-78
2021/12/09 02:36:19;;;;;;;10.40;9.30;;;4.50;99.90;;;;;;5008761;28;20198;-78
2021/12/09 02:38:49;;;;;;;12.85;9.63;;;4.40;99.90;;;;;;5008943;28;20253;-78
2021/12/09 02:41:20;;;;;;;15.38;9.82;;;4.40;99.90;;;;;;4991513;28;20206;-78
2021/12/09 02:43:52;;;;;;;11.05;8.57;;;4.40;99.90;;;;;;5004426;28;20727;-78
2021/12/09 02:46:19;;;;;;;11.32;8.55;;;4.40;99.90;;;;;;5010162;28;20230;-77
2021/12/09 02:48:46;;;;;;;10.65;9.30;;;4.40;99.90;;;;;;5007948;28;20190;-78
2021/12/09 02:51:14;;;;;;;12.68;8.85;;;4.40;99.90;;;;;;5010658;28;20225;-78
2021/12/09 02:53:41;;;;;;;11.98;7.63;;;4.40;99.90;;;;;;5010655;28;20299;-77
2021/12/09 02:56:10;;;;;;;12.77;8.20;;;4.30;99.90;;;;;;5010986;28;20208;-78
2021/12/09 02:58:38;;;;;;;10.43;7.95;;;4.30;99.90;;;;;;5010628;28;20190;-78
2021/12/09 03:01:12;;;;;;;10.75;8.48;;;4.20;99.90;;;;;;5008861;28;20234;-78
2021/12/09 03:03:45;;;;;;;12.57;7.40;;;4.30;99.90;;;;;;5010718;28;20218;-77
2021/12/09 03:06:13;;;;;;;14.52;8.23;;;4.20;99.90;;;;;;5009042;28;20682;-78
2021/12/09 03:08:41;;;;;;;12.73;7.55;;;4.20;99.90;;;;;;5005164;28;20191;-78
2021/12/09 03:11:11;;;;;;;9.32;7.10;;;4.20;99.90;;;;;;5008356;28;20272;-78
2021/12/09 03:13:40;;;;;;;11.68;7.50;;;4.20;99.90;;;;;;5010260;28;20224;-77
2021/12/09 03:16:08;;;;;;;9.98;6.80;;;4.10;99.90;;;;;;5009984;28;20197;-77
2021/12/09 03:18:40;;;;;;;12.18;6.90;;;4.10;99.90;;;;;;5006752;28;20516;-78
2021/12/09 03:21:13;;;;;;;10.23;7.40;;;4.10;99.90;;;;;;5002309;28;20200;-78
2021/12/09 03:23:41;;;;;;;8.57;6.63;;;4.10;99.90;;;;;;5008359;28;20222;-78
2021/12/09 03:26:09;;;;;;;9.98;7.00;;;4.10;99.90;;;;;;5009480;28;20211;-78
2021/12/09 03:28:36;;;;;;;10.85;6.75;;;4.10;99.90;;;;;;4998388;28;20202;-78
2021/12/09 03:31:04;;;;;;;11.65;7.50;;;4.10;99.90;;;;;;5008975;28;20286;-78
2021/12/09 03:33:31;;;;;;;11.27;7.07;;;4.10;99.90;;;;;;4997345;28;20214;-78
2021/12/09 03:35:59;;;;;;;7.93;6.40;;;4.10;99.90;;;;;;5010310;28;20198;-77
2021/12/09 03:38:27;;;;;;;10.00;6.88;;;4.10;99.90;;;;;;5006501;28;20278;-78
2021/12/09 03:40:54;;;;;;;10.38;6.70;;;4.10;99.90;;;;;;5002681;28;20559;-77
2021/12/09 03:43:24;;;;;;;11.05;7.10;;;4.10;99.90;;;;;;5008998;28;20214;-77
2021/12/09 03:45:55;;;;;;;10.95;6.80;;;4.00;99.90;;;;;;5010148;28;20983;-78
2021/12/09 03:48:22;;;;;;;12.23;6.90;;;4.00;99.90;;;;;;5006622;28;20222;-77
2021/12/09 03:50:49;;;;;;;9.52;6.60;;;4.00;99.90;;;;;;5009953;28;20202;-78
2021/12/09 03:53:17;;;;;;;12.43;6.45;;;3.90;99.90;;;;;;5003272;28;20310;-77
2021/12/09 03:55:44;;;;;;;10.80;7.28;;;3.90;99.90;;;;;;5000801;28;20206;-78
2021/12/09 03:58:11;;;;;;;12.80;7.28;;;3.90;99.90;;;;;;5010771;28;20203;-78
2021/12/09 04:00:39;;;;;;;8.85;7.15;;;3.90;99.90;;;;;;5008240;28;20206;-77
2021/12/09 04:03:07;;;;;;;8.48;6.65;;;3.90;99.90;;;;;;5008743;28;20222;-77
2021/12/09 04:05:34;;;;;;;11.38;7.03;;;3.90;99.90;;;;;;5010386;28;20277;-77
2021/12/09 04:08:03;;;;;;;11.05;7.20;;;4.00;99.90;;;;;;5000551;28;20321;-78
2021/12/09 04:10:31;;;;;;;12.73;7.63;;;4.00;99.90;;;;;;5005016;28;20199;-77
2021/12/09 04:12:58;;;;;;;11.38;7.30;;;4.00;99.90;;;;;;5009914;28;20229;-78
2021/12/09 04:15:26;;;;;;;14.00;7.00;;;4.00;99.90;;;;;;5009461;28;20290;-78
2021/12/09 04:17:54;;;;;;;9.00;6.32;;;4.00;99.90;;;;;;5010170;28;20293;-78
2021/12/09 04:20:21;;;;;;;12.57;7.00;;;4.00;99.90;;;;;;5007996;28;20289;-78
2021/12/09 04:22:49;;;;;;;12.05;6.75;;;4.00;99.90;;;;;;5006460;28;20642;-79
2021/12/09 04:25:17;;;;;;;10.80;6.65;;;4.00;99.90;;;;;;5006750;28;20202;-74
2021/12/09 04:27:45;;;;;;;8.43;6.32;;;4.00;99.90;;;;;;5012638;28;20233;-76
2021/12/09 04:30:13;;;;;;;11.85;7.03;;;3.90;99.90;;;;;;5006333;28;20199;-76
2021/12/09 04:32:40;;;;;;;9.35;6.70;;;3.90;99.90;;;;;;5009728;28;20682;-81
2021/12/09 04:35:10;;;;;;;9.75;6.45;;;3.80;99.90;;;;;;5010174;28;20562;-81
2021/12/09 04:37:39;;;;;;;9.65;6.32;;;3.70;99.90;;;;;;5012751;28;20234;-82
2021/12/09 04:40:08;;;;;;;11.27;6.60;;;3.70;99.90;;;;;;5010857;28;20229;-81
2021/12/09 04:42:35;;;;;;;11.35;6.65;;;3.70;99.90;;;;;;5012505;28;20269;-79
2021/12/09 04:45:03;;;;;;;8.65;6.30;;;3.60;99.90;;;;;;5008224;28;20298;-79
2021/12/09 04:47:30;;;;;;;11.65;6.35;;;3.70;99.90;;;;;;5010438;28;20272;-80
2021/12/09 04:49:58;;;;;;;10.07;6.10;;;3.70;99.90;;;;;;5011138;28;20557;-81
2021/12/09 04:52:26;;;;;;;9.27;5.72;;;3.70;99.90;;;;;;5009940;28;20233;-80
2021/12/09 04:54:53;;;;;;;10.27;6.13;;;3.80;99.90;;;;;;5008469;28;20195;-81
2021/12/09 04:57:20;;;;;;;9.25;5.93;;;3.80;99.90;;;;;;5000397;28;20625;-85
2021/12/09 04:59:48;;;;;;;10.43;5.55;;;3.90;99.90;;;;;;5000032;28;20281;-83
2021/12/09 05:02:24;;;;;;;11.65;5.35;;;3.90;99.90;;;;;;5005004;28;20202;-77
2021/12/09 05:04:51;;;;;;;8.30;5.00;;;3.90;99.90;;;;;;5005224;28;20201;-72
2021/12/09 05:07:18;;;;;;;8.65;5.75;;;4.00;99.90;;;;;;5007428;28;20226;-71
2021/12/09 05:09:50;;;;;;;8.07;5.93;;;4.00;99.90;;;;;;5009091;28;20557;-77
2021/12/09 05:12:18;;;;;;;7.07;6.22;;;4.00;99.90;;;;;;5009613;28;20288;-71
2021/12/09 05:14:45;;;;;;;10.75;5.55;;;4.00;99.90;;;;;;4996700;28;20416;-71
2021/12/09 05:17:13;;;;;;;12.18;5.50;;;3.90;99.90;;;;;;5000037;28;20203;-71
2021/12/09 05:19:40;;;;;;;10.90;5.55;;;3.90;99.90;;;;;;5003320;28;20286;-71
2021/12/09 05:22:07;;;;;;;10.88;6.80;;;3.90;99.90;;;;;;5004451;28;20201;-71
2021/12/09 05:24:35;;;;;;;10.25;5.95;;;3.90;99.90;;;;;;5002538;28;20195;-71
2021/12/09 05:27:05;;;;;;;12.13;5.55;;;3.90;99.90;;;;;;5011011;28;20241;-71
2021/12/09 05:29:38;;;;;;;8.57;6.10;;;3.80;99.90;;;;;;5002393;28;20198;-71
2021/12/09 05:32:10;;;;;;;9.25;5.93;;;3.80;99.90;;;;;;5008590;28;20195;-72
2021/12/09 05:34:41;;;;;;;8.20;6.60;;;3.80;99.90;;;;;;5000829;28;20621;-72
2021/12/09 05:37:10;;;;;;;9.20;6.35;;;3.80;99.90;;;;;;4996152;28;20281;-72
2021/12/09 05:39:37;;;;;;;8.13;6.00;;;3.70;99.90;;;;;;5003957;28;20666;-73
2021/12/09 05:42:07;;;;;;;7.40;5.28;;;3.70;99.90;;;;;;4999392;28;20355;-72
2021/12/09 05:44:35;;;;;;;10.48;5.50;;;3.80;99.90;;;;;;5003116;28;20349;-73
2021/12/09 05:47:05;;;;;;;10.05;5.82;;;3.80;99.90;;;;;;4998955;28;20218;-72
2021/12/09 05:49:33;;;;;;;8.05;5.28;;;3.80;99.90;;;;;;5000705;28;20199;-72
2021/12/09 05:52:00;;;;;;;10.15;6.40;;;3.80;99.90;;;;;;5005810;28;20203;-72
2021/12/09 05:54:27;;;;;;;9.82;5.50;;;3.80;99.90;;;;;;5001380;28;20195;-72
2021/12/09 05:56:54;;;;;;;8.48;5.53;;;3.70;99.90;;;;;;5002138;28;20217;-72
2021/12/09 05:59:22;;;;;;;8.30;5.75;;;3.70;99.90;;;;;;5008239;28;20588;-77
2021/12/09 06:01:49;;;;;;;7.60;4.80;;;3.80;99.90;;;;;;5002201;28;20195;-74
2021/12/09 06:04:16;;;;;;;8.63;5.20;;;3.70;99.90;;;;;;5010870;28;20554;-74
2021/12/09 06:06:43;;;;;;;5.72;4.40;;;3.70;99.90;;;;;;5003942;28;20276;-75
2021/12/09 06:09:12;;;;;;;7.60;5.97;;;3.80;99.90;;;;;;5003469;28;20202;-74
2021/12/09 06:11:40;;;;;;;9.60;4.60;;;3.80;99.90;;;;;;5008489;28;20225;-74
2021/12/09 06:14:09;;;;;;;10.75;4.93;;;3.80;99.90;;;;;;4997040;28;20217;-74
2021/12/09 06:16:37;;;;;;;6.65;4.97;;;3.80;99.90;;;;;;5011400;28;20202;-74
2021/12/09 06:19:05;;;;;;;13.30;4.65;;;3.80;99.90;;;;;;5005023;28;20195;-74
2021/12/09 06:21:32;;;;;;;6.78;4.75;;;3.80;99.90;;;;;;4991359;28;20257;-73
2021/12/09 06:24:00;;;;;;;5.68;3.85;;;3.80;99.90;;;;;;5002370;28;20222;-74
2021/12/09 06:26:28;;;;;;;5.93;4.53;;;3.80;99.90;;;;;;5010452;28;20194;-74
2021/12/09 06:28:55;;;;;;;6.68;3.95;;;3.90;99.90;;;;;;5010007;28;20209;-74
2021/12/09 06:31:22;;;;;;;5.90;4.10;;;3.80;99.90;;;;;;5005620;28;20197;-74
2021/12/09 06:33:51;;;;;;;6.47;4.45;;;3.90;99.90;;;;;;5000914;28;20649;-74
2021/12/09 06:36:19;;;;;;;7.40;4.30;;;3.90;99.90;;;;;;5005908;28;20199;-74
2021/12/09 06:38:47;;;;;;;6.05;4.43;;;3.90;99.90;;;;;;5003828;28;20194;-74
2021/12/09 06:41:14;;;;;;;6.35;4.00;;;4.00;99.90;;;;;;4993819;28;20257;-74
2021/12/09 06:43:41;;;;;;;5.28;4.15;;;4.10;99.90;;;;;;4998658;28;20221;-74
2021/12/09 06:46:10;;;;;;;7.30;4.57;;;4.10;99.90;;;;;;5005344;28;20217;-74
2021/12/09 06:48:38;;;;;;;6.03;3.80;;;4.10;99.90;;;;;;5007237;28;20230;-74
2021/12/09 06:51:07;;;;;;;9.02;4.07;;;4.20;99.90;;;;;;5000821;28;20202;-74
2021/12/09 06:53:35;;;;;;;5.13;3.80;;;4.30;99.90;;;;;;4996779;28;20214;-74
2021/12/09 06:56:02;;;;;;;5.20;4.10;;;4.20;99.90;;;;;;5002783;28;20198;-74
2021/12/09 06:58:29;;;;;;;8.52;4.30;;;4.10;99.90;;;;;;5010582;28;20195;-74
2021/12/09 07:00:57;;;;;;;6.35;4.20;;;4.10;99.90;;;;;;5006758;28;20191;-73
2021/12/09 07:03:25;;;;;;;5.22;4.38;;;4.00;99.90;;;;;;4996879;28;20232;-74
2021/12/09 07:05:53;;;;;;;6.85;4.20;;;4.00;99.90;;;;;;4999429;28;20277;-74
2021/12/09 07:08:22;;;;;;;4.93;3.78;;;4.00;99.90;;;;;;4996820;28;20227;-74
2021/12/09 07:10:51;;;;;;;6.35;3.92;;;3.90;99.90;;;;;;5005601;28;20209;-74
2021/12/09 07:13:18;;;;;;;6.68;3.75;;;3.90;99.90;;;;;;5010137;28;20218;-74
2021/12/09 07:15:45;;;;;;;7.00;4.40;;;3.90;99.90;;;;;;5003752;28;20256;-73
2021/12/09 07:18:12;;;;;;;6.22;4.40;;;3.90;99.90;;;;;;5009931;28;20216;-73
2021/12/09 07:20:39;;;;;;;6.60;4.40;;;3.90;99.90;;;;;;5010051;28;20194;-74
2021/12/09 07:23:06;;;;;;;5.88;4.00;;;3.90;99.90;;;;;;5008447;28;20223;-74
2021/12/09 07:25:34;;;;;;;6.50;4.47;;;4.00;99.90;;;;;;5008065;28;20551;-74
2021/12/09 07:28:01;;;;;;;6.18;4.07;;;4.00;99.90;;;;;;5007117;28;20230;-73
2021/12/09 07:30:29;;;;;;;9.10;4.80;;;4.10;99.90;;;;;;5006395;28;20222;-74
2021/12/09 07:32:57;;;;;;;5.50;4.90;;;4.20;99.90;;;;;;5004052;28;20218;-74
2021/12/09 07:35:26;;;;;;;4.90;4.35;;;4.20;99.90;;;;;;5008203;28;20213;-74
2021/12/09 07:37:53;;;;;;;6.55;4.10;;;4.30;99.90;;;;;;4998836;28;20253;-74
2021/12/09 07:40:21;;;;;;;6.88;4.30;;;4.30;99.90;;;;;;5004646;28;20202;-74
2021/12/09 07:42:49;;;;;;;4.35;3.83;;;4.30;99.90;;;;;;5009455;28;20760;-73
2021/12/09 07:45:18;;;;;;;6.20;5.15;;;4.30;99.90;;;;;;5010256;28;20567;-73
2021/12/09 07:47:46;;;;;;;8.30;5.88;;;4.30;99.90;;;;;;4994712;28;20226;-74
2021/12/09 07:50:15;;;;;;;9.77;6.43;;;4.30;99.90;;;;;;5001135;28;20196;-74
2021/12/09 07:52:43;;;;;;;7.63;5.70;;;4.30;99.90;;;;;;4990610;28;20551;-74
2021/12/09 07:55:11;;;;;;;5.80;5.10;;;4.40;99.90;;;;;;4992075;28;20211;-74
2021/12/09 07:57:39;;;;;;;8.55;5.40;;;4.40;99.90;;;;;;4992574;28;20654;-73
2021/12/09 08:00:12;;;;;;;9.57;5.47;;;4.40;99.90;;;;;;5001643;28;20199;-74
2021/12/09 08:02:40;;;;;;;6.72;5.18;;;4.30;99.90;;;;;;5006711;28;20218;-74
2021/12/09 08:05:08;;;;;;;7.63;5.40;;;4.30;99.90;;;;;;5009041;28;20562;-74
2021/12/09 08:07:35;;;;;;;5.32;4.70;;;4.20;99.90;;;;;;4999375;28;20246;-74
2021/12/09 08:10:03;;;;;;;8.05;6.03;;;4.20;99.90;;;;;;5012255;28;20199;-73
2021/12/09 08:12:30;;;;;;;6.88;5.13;;;4.20;99.90;;;;;;5011463;28;20232;-74
2021/12/09 08:14:57;;;;;;;8.85;5.30;;;4.30;99.90;;;;;;5011938;28;20202;-74
2021/12/09 08:17:44;;;;;;;7.75;5.10;;;4.30;99.90;;;;;;5001184;28;20272;-74
2021/12/09 08:20:13;;;;;;;6.47;5.43;;;4.40;99.90;;;;;;4994231;28;20223;-73
2021/12/09 08:22:41;;;;;;;7.00;5.60;;;4.50;99.90;;;;;;5001390;28;20637;-74
2021/12/09 08:25:09;;;;;;;9.48;6.85;;;4.50;99.90;;;;;;5004777;28;20540;-74
2021/12/09 08:27:37;;;;;;;5.70;5.20;;;4.50;99.90;;;;;;4996879;28;20230;-75
2021/12/09 08:30:06;;;;;;;6.55;5.95;;;4.50;99.90;;;;;;5013090;28;20222;-73
2021/12/09 08:32:34;;;;;;;7.88;5.60;;;4.50;99.90;;;;;;5002323;28;20860;-74
2021/12/09 08:35:02;;;;;;;6.55;5.95;;;4.40;99.90;;;;;;5003102;28;20484;-74
2021/12/09 08:37:29;;;;;;;8.35;5.97;;;4.40;99.90;;;;;;5002062;28;20199;-74
2021/12/09 08:39:57;;;;;;;6.15;5.65;;;4.50;99.90;;;;;;5012468;28;20645;-74
2021/12/09 08:42:25;;;;;;;10.68;6.30;;;4.60;99.90;;;;;;5012264;28;20329;-74
2021/12/09 08:44:53;;;;;;;7.13;5.65;;;4.70;99.90;;;;;;5004370;28;20220;-74
2021/12/09 08:47:20;;;;;;;7.70;5.78;;;4.80;99.90;;;;;;4997112;28;20199;-74
2021/12/09 08:49:48;;;;;;;6.72;5.57;;;4.90;99.90;;;;;;5013063;28;20274;-74
2021/12/09 08:52:15;;;;;;;5.85;5.00;;;4.80;99.90;;;;;;4995982;28;20215;-74
2021/12/09 08:54:42;;;;;;;10.20;5.70;;;4.80;99.90;;;;;;5007962;28;20203;-74
2021/12/09 08:57:11;;;;;;;5.50;4.90;;;4.80;99.90;;;;;;4998567;28;20836;-75
2021/12/09 08:59:38;;;;;;;5.88;4.70;;;4.80;99.90;;;;;;5003871;28;20195;-75
2021/12/09 09:02:05;;;;;;;6.68;5.60;;;4.80;99.90;;;;;;5008155;28;20214;-73
2021/12/09 09:04:32;;;;;;;7.85;5.10;;;4.90;99.90;;;;;;5008363;28;20202;-74
2021/12/09 09:07:02;;;;;;;7.45;5.22;;;4.90;99.90;;;;;;5007437;28;20334;-75
2021/12/09 09:09:34;;;;;;;7.50;5.25;;;5.00;99.90;;;;;;4995888;28;20601;-74
2021/12/09 09:12:02;;;;;;;6.35;5.15;;;5.00;99.90;;;;;;5004930;28;20226;-74
2021/12/09 09:14:29;;;;;;;5.55;5.05;;;5.00;99.90;;;;;;4998520;28;20199;-74
2021/12/09 09:16:56;;;;;;;6.22;5.28;;;5.10;99.90;;;;;;5008731;28;20688;-75
2021/12/09 09:19:24;;;;;;;8.82;5.50;;;5.10;99.90;;;;;;5007941;28;20210;-75
2021/12/09 09:21:51;;;;;;;8.75;5.65;;;5.20;99.90;;;;;;5004652;28;20257;-74
2021/12/09 09:24:19;;;;;;;6.57;5.38;;;5.20;99.90;;;;;;5005809;28;20210;-74
2021/12/09 09:26:47;;;;;;;8.80;5.95;;;5.20;99.90;;;;;;5004040;28;20266;-74
2021/12/09 09:29:14;;;;;;;7.13;6.10;;;5.10;99.90;;;;;;5003720;28;20329;-74
2021/12/09 09:31:42;;;;;;;6.70;6.03;;;5.20;99.90;;;;;;5000185;28;20210;-75
2021/12/09 09:34:11;;;;;;;6.70;6.10;;;5.30;99.90;;;;;;4996962;28;20232;-74
2021/12/09 09:36:43;;;;;;;7.03;5.57;;;5.30;99.90;;;;;;5008830;28;20736;-74
2021/12/09 09:39:18;;;;;;;7.03;6.32;;;5.30;99.90;;;;;;4995111;28;20203;-74
2021/12/09 09:41:55;;;;;;;7.47;6.22;;;5.30;99.90;;;;;;5000696;28;20195;-74
2021/12/09 09:44:28;;;;;;;7.07;6.45;;;5.30;99.90;;;;;;5009574;28;20194;-74
2021/12/09 09:46:58;;;;;;;6.57;5.95;;;5.30;99.90;;;;;;5006564;28;20205;-74
2021/12/09 09:49:25;;;;;;;8.38;6.05;;;5.40;99.90;;;;;;5001670;28;20233;-74
2021/12/09 09:51:52;;;;;;;6.63;5.97;;;5.50;99.90;;;;;;5004041;28;20611;-73
2021/12/09 09:54:19;;;;;;;7.35;6.57;;;5.60;99.90;;;;;;5007700;28;20324;-74
2021/12/09 09:56:49;;;;;;;6.93;6.20;;;5.70;99.90;;;;;;5010690;28;20206;-74
2021/12/09 09:59:17;;;;;;;8.60;6.57;;;5.70;99.90;;;;;;4997207;28;20562;-75
2021/12/09 10:01:49;;;;;;;8.35;6.85;;;5.80;99.90;;;;;;5009232;28;20361;-74
2021/12/09 10:04:25;;;;;;;9.85;7.00;;;5.80;99.90;;;;;;5010708;28;20206;-74
2021/12/09 10:06:53;;;;;;;7.97;7.28;;;5.80;99.90;;;;;;4996393;28;20224;-74
2021/12/09 10:09:20;;;;;;;8.73;7.88;;;5.90;99.90;;;;;;5006785;28;20240;-74
2021/12/09 10:11:48;;;;;;;9.75;8.85;;;5.80;99.90;;;;;;5008829;28;20222;-75
2021/12/09 10:14:18;;;;;;;13.95;9.73;;;5.90;99.90;;;;;;4992955;28;20199;-75
2021/12/09 10:16:47;;;;;;;9.82;8.82;;;5.90;99.90;;;;;;5008737;28;20211;-74
2021/12/09 10:19:17;;;;;;;11.00;9.85;;;6.00;99.90;;;;;;5004099;28;20218;-75
2021/12/09 10:21:45;;;;;;;13.98;10.40;;;6.10;99.90;;;;;;5001909;28;20321;-74
2021/12/09 10:24:13;;;;;;;11.85;8.60;;;5.90;99.90;;;;;;5001244;28;20203;-75
2021/12/09 10:26:41;;;;;;;11.45;9.88;;;5.90;99.90;;;;;;5007418;28;20745;-74
2021/12/09 10:29:14;;;;;;;12.05;10.52;;;5.90;99.90;;;;;;5008572;28;20597;-74
2021/12/09 10:31:45;;;;;;;11.02;9.15;;;5.90;99.90;;;;;;5002524;28;20248;-74
2021/12/09 10:34:33;;;;;;;11.13;10.10;;;5.90;99.90;;;;;;5005448;28;20226;-74
2021/12/09 10:37:15;;;;;;;10.13;9.23;;;5.90;99.90;;;;;;5004477;28;20527;-74
2021/12/09 10:39:46;;;;;;;10.35;8.82;;;5.90;99.90;;;;;;5006212;28;20198;-74
2021/12/09 10:42:18;;;;;;;12.07;9.65;;;5.80;99.90;;;;;;4999687;28;20281;-74
2021/12/09 10:44:54;;;;;;;12.90;9.60;;;5.70;99.90;;;;;;5007417;28;20214;-74
2021/12/09 10:47:36;;;;;;;10.07;9.07;;;5.80;99.90;;;;;;5006797;28;20240;-74
2021/12/09 10:50:12;;;;;;;10.13;9.05;;;5.90;99.90;;;;;;5007503;28;20237;-74
2021/12/09 10:52:44;;;;;;;9.63;8.63;;;5.90;99.90;;;;;;5002021;28;20364;-74
2021/12/09 10:55:16;;;;;;;9.95;9.05;;;5.90;99.90;;;;;;5007135;28;20284;-74
2021/12/09 10:57:44;;;;;;;10.48;9.48;;;5.90;99.90;;;;;;5003466;28;20211;-74
2021/12/09 11:00:20;;;;;;;10.18;8.38;;;5.90;99.90;;;;;;5003403;28;20218;-74
2021/12/09 11:03:25;;;;;;;9.98;8.70;;;5.90;99.90;;;;;;4994515;28;20230;-74
2021/12/09 11:05:55;;;;;;;9.57;8.68;;;5.80;99.90;;;;;;5005071;28;20573;-75
2021/12/09 11:08:43;;;;;;;9.38;8.48;;;6.00;99.90;;;;;;5001568;28;20241;-74
2021/12/09 11:11:13;;;;;;;10.15;8.38;;;6.20;99.90;;;;;;5000616;28;20523;-75
2021/12/09 11:13:48;;;;;;;10.52;9.52;;;6.40;99.90;;;;;;5006096;28;20214;-74
2021/12/09 11:16:24;;;;;;;9.00;7.97;;;6.50;99.90;;;;;;5006007;28;20234;-74
2021/12/09 11:18:56;;;;;;;12.90;8.75;;;6.60;99.90;;;;;;5006770;28;20221;-77
2021/12/09 11:21:26;;;;;;;9.95;7.97;;;6.70;99.90;;;;;;5005443;28;20289;-76
2021/12/09 11:24:00;;;;;;;9.43;8.63;;;6.80;99.90;;;;;;5007474;28;20203;-75
2021/12/09 11:26:43;;;;;;;10.55;8.80;;;6.70;99.90;;;;;;5001920;28;20272;-75
2021/12/09 11:29:13;;;;;;;10.23;9.23;;;6.70;99.90;;;;;;5007364;28;20218;-75
2021/12/09 11:31:48;;;;;;;10.38;9.32;;;6.70;99.90;;;;;;5006622;28;20352;-76
2021/12/09 11:34:19;;;;;;;12.45;10.27;;;6.60;99.90;;;;;;5003114;28;20285;-75
2021/12/09 11:37:00;;;;;;;11.10;9.90;;;6.60;99.90;;;;;;5010945;28;20298;-76
2021/12/09 11:39:33;;;;;;;10.82;9.73;;;6.60;99.90;;;;;;5011803;28;20191;-76
2021/12/09 11:42:21;;;;;;;12.18;10.05;;;6.60;99.90;;;;;;5008724;28;20288;-75
2021/12/09 11:44:49;;;;;;;11.38;9.85;;;6.60;99.90;;;;;;5009731;28;20198;-76
2021/12/09 11:47:18;;;;;;;11.45;9.95;;;6.50;99.90;;;;;;5011513;28;20202;-75
2021/12/09 11:49:46;;;;;;;11.40;10.27;;;6.40;99.90;;;;;;5012161;28;20344;-75
2021/12/09 11:52:15;;;;;;;11.05;9.95;;;6.40;99.90;;;;;;5009942;28;20226;-76
2021/12/09 11:54:48;;;;;;;10.07;9.07;;;6.50;99.90;;;;;;5005269;28;20605;-75
2021/12/09 11:57:30;;;;;;;11.00;9.93;;;6.50;99.90;;;;;;5007866;28;20218;-75
2021/12/09 12:11:57;;;;;;;9.57;8.48;;;6.70;99.90;;;;;;4996076;28;20275;-76
2021/12/09 12:14:36;;;;;;;9.57;8.55;;;6.80;99.90;;;;;;5003206;28;20600;-76
2021/12/09 12:17:12;;;;;;;9.82;7.47;;;6.70;99.90;;;;;;5010073;28;20248;-75
2021/12/09 12:20:15;;;;;;;7.22;6.20;;;6.80;99.90;;;;;;5005804;28;20203;-74
2021/12/09 12:23:01;;;;;;;7.90;7.07;;;6.80;99.90;;;;;;5008411;28;20218;-76
2021/12/09 12:26:29;;;;;;;9.50;6.72;;;7.00;99.90;;;;;;5007527;28;20670;-76
2021/12/09 12:29:24;;;;;;;9.00;6.70;;;6.90;99.90;;;;;;5009030;28;20222;-75
2021/12/09 12:32:22;;;;;;;8.02;6.40;;;6.90;99.90;;;;;;5009039;28;20218;-76
2021/12/09 12:38:02;;;;;;;6.15;5.15;;;7.10;99.90;;;;;;4992201;28;20198;-76
2021/12/09 12:40:37;;;;;;;7.63;4.32;;;7.70;99.90;;;;;;5005467;28;20298;-76
2021/12/09 12:43:09;;;;;;;4.85;4.35;;;8.20;99.90;;;;;;5007091;28;20217;-75
2021/12/09 12:49:02;;;;;;;5.78;4.10;;;8.80;99.90;;;;;;4947428;28;20206;-77
2021/12/09 12:51:35;;;;;;;5.72;4.35;;;9.10;99.90;;;;;;4997099;28;20843;-76
2021/12/09 12:54:24;;;;;;;7.00;4.25;;;9.70;99.90;;;;;;5006962;28;20213;-76
2021/12/09 12:56:56;;;;;;;5.30;3.90;;;10.00;99.90;;;;;;5003035;28;20211;-77
2021/12/09 12:59:29;;;;;;;5.78;4.43;;;9.90;99.90;;;;;;5005788;28;20202;-80
2021/12/09 13:02:15;;;;;;;5.13;4.00;;;9.50;99.90;;;;;;5009433;28;20220;-79
2021/12/09 13:04:54;;;;;;;6.32;4.22;;;8.80;99.90;;;;;;5002658;28;20491;-80
2021/12/09 13:07:33;;;;;;;5.40;4.20;;;8.20;99.90;;;;;;5001653;28;20672;-79
2021/12/09 13:10:29;;;;;;;7.03;4.90;;;7.60;99.90;;;;;;5004273;28;20651;-75
2021/12/09 13:13:16;;;;;;;6.35;4.47;;;7.00;99.90;;;;;;4999024;28;20237;-81
2021/12/09 13:16:05;;;;;;;6.38;4.82;;;6.90;99.90;;;;;;5009032;28;20198;-81
2021/12/09 13:18:54;;;;;;;9.18;4.70;;;6.70;99.90;;;;;;5002657;28;20198;-75
2021/12/09 13:21:46;;;;;;;7.05;4.32;;;6.70;99.90;;;;;;5008356;28;20828;-74
2021/12/09 13:24:38;;;;;;;8.93;4.40;;;6.90;99.90;;;;;;5007903;28;20205;-75
2021/12/09 13:30:30;;;;;;;7.95;4.10;;;7.60;99.90;;;;;;5000289;28;20280;-75